createdAt,value
2023-02-12T00:01:29.176Z,103321.89
2023-02-12T00:04:40.431Z,103323.33
2023-02-12T00:07:41.439Z,103323.02
2023-02-12T00:10:46.092Z,103325.40
2023-02-12T00:13:57.765Z,103325.79
2023-02-12T00:16:57.567Z,103328.98
2023-02-12T00:19:53.449Z,103331.17
2023-02-12T00:23:04.304Z,103330.86
2023-02-12T00:26:16.521Z,103335.14
2023-02-12T00:29:16.454Z,103329.28
2023-02-12T00:32:27.617Z,103324.30
2023-02-12T00:35:30.976Z,103329.81
2023-02-12T00:38:33.137Z,103327.93
2023-02-12T00:41:24.214Z,103323.36
2023-02-12T00:44:19.667Z,103322.69
2023-02-12T00:47:30.973Z,103323.77
2023-02-12T00:50:42.392Z,103323.77
2023-02-12T00:53:43.508Z,103320.91
2023-02-12T00:56:56.046Z,103322.70
2023-02-12T01:00:08.687Z,103315.02
2023-02-12T01:03:19.433Z,103312.01
2023-02-12T01:06:30.261Z,103311.86
2023-02-12T01:09:41.231Z,103311.52
2023-02-12T01:12:52.216Z,103306.79
2023-02-12T01:15:45.712Z,103303.81
2023-02-12T01:18:56.949Z,103300.44
2023-02-12T01:22:00.705Z,103301.01
2023-02-12T01:25:11.929Z,103294.11
2023-02-12T01:28:13.914Z,103289.52
2023-02-12T01:31:26.058Z,103286.33
2023-02-12T01:34:26.921Z,103285.66
2023-02-12T01:37:30.297Z,103279.48
2023-02-12T01:40:41.389Z,103277.90
2023-02-12T01:43:39.989Z,103275.95
2023-02-12T01:46:51.771Z,103274.58
2023-02-12T01:50:01.985Z,103272.82
2023-02-12T01:53:20.039Z,103271.98
2023-02-12T01:56:31.737Z,103263.11
2023-02-12T01:59:25.727Z,103263.10
2023-02-12T02:02:39.469Z,103259.71
2023-02-12T02:05:52.734Z,103255.27
2023-02-12T02:08:53.929Z,103258.84
2023-02-12T02:12:10.898Z,103255.08
2023-02-12T02:15:14.530Z,103254.94
2023-02-12T02:18:28.865Z,103254.21
2023-02-12T02:22:01.264Z,103249.27
2023-02-12T02:25:38.150Z,103251.23
2023-02-12T02:28:55.314Z,103246.95
2023-02-12T02:32:00.667Z,103248.92
2023-02-12T02:35:14.377Z,103249.61
2023-02-12T02:38:34.024Z,103250.66
2023-02-12T02:41:48.190Z,103257.02
2023-02-12T02:44:45.609Z,103255.27
2023-02-12T02:47:57.454Z,103254.33
2023-02-12T02:51:05.373Z,103254.27
2023-02-12T02:54:06.084Z,103255.97
2023-02-12T02:57:08.108Z,103257.49
2023-02-12T03:00:20.240Z,103258.77
2023-02-12T03:03:28.924Z,103255.11
2023-02-12T03:06:35.780Z,103249.31
2023-02-12T03:09:47.323Z,103248.48
2023-02-12T03:12:54.392Z,103247.12
2023-02-12T03:16:00.740Z,103241.54
2023-02-12T03:19:09.357Z,103241.30
2023-02-12T03:22:15.282Z,103240.54
2023-02-12T03:25:28.001Z,103240.26
2023-02-12T03:28:30.423Z,103236.95
2023-02-12T03:31:48.169Z,103238.27
2023-02-12T03:34:55.132Z,103237.85
2023-02-12T03:37:58.464Z,103235.27
2023-02-12T03:41:11.461Z,103233.58
2023-02-12T03:44:07.938Z,103230.48
2023-02-12T03:47:17.388Z,103225.05
2023-02-12T03:50:21.900Z,103221.25
2023-02-12T03:53:33.417Z,103219.89
2023-02-12T03:56:45.921Z,103219.45
2023-02-12T03:59:55.916Z,103221.13
2023-02-12T04:03:07.527Z,103215.66
2023-02-12T04:06:22.928Z,103213.83
2023-02-12T04:09:33.837Z,103213.73
2023-02-12T04:12:48.519Z,103216.10
2023-02-12T04:16:02.189Z,103220.21
2023-02-12T04:19:03.147Z,103220.97
2023-02-12T04:22:11.386Z,103219.98
2023-02-12T04:25:17.725Z,103213.48
2023-02-12T04:28:11.839Z,103206.83
2023-02-12T04:31:14.885Z,103211.16
2023-02-12T04:34:19.144Z,103214.11
2023-02-12T04:37:26.270Z,103217.88
2023-02-12T04:40:31.405Z,103221.34
2023-02-12T04:43:36.607Z,103219.43
2023-02-12T04:46:47.732Z,103221.95
2023-02-12T04:49:58.749Z,103224.08
2023-02-12T04:52:58.828Z,103230.09
2023-02-12T04:56:13.228Z,103230.98
2023-02-12T04:59:09.564Z,103233.33
2023-02-12T05:02:20.271Z,103237.81
2023-02-12T05:05:30.992Z,103236.89
2023-02-12T05:08:40.419Z,103236.76
2023-02-12T05:11:34.411Z,103238.58
2023-02-12T05:14:45.247Z,103237.04
2023-02-12T05:17:49.676Z,103240.67
2023-02-12T05:20:58.471Z,103239.64
2023-02-12T05:24:02.442Z,103240.44
2023-02-12T05:27:13.498Z,103241.65
2023-02-12T05:30:24.886Z,103239.55
2023-02-12T05:33:35.849Z,103237.41
2023-02-12T05:36:46.612Z,103236.92
2023-02-12T05:39:57.724Z,103233.89
2023-02-12T05:43:08.904Z,103236.20
2023-02-12T05:46:10.214Z,103231.94
2023-02-12T05:49:14.071Z,103233.34
2023-02-12T05:52:24.861Z,103232.59
2023-02-12T05:55:36.007Z,103232.23
2023-02-12T05:58:48.656Z,103231.63
2023-02-12T06:01:52.788Z,103228.20
2023-02-12T06:04:58.097Z,103228.09
2023-02-12T06:08:08.819Z,103231.54
2023-02-12T06:11:20.679Z,103233.74
2023-02-12T06:14:25.206Z,103229.69
2023-02-12T06:17:36.706Z,103229.17
2023-02-12T06:20:47.956Z,103229.92
2023-02-12T06:23:59.031Z,103227.64
2023-02-12T06:27:09.848Z,103217.00
2023-02-12T06:30:21.253Z,103220.95
2023-02-12T06:33:32.312Z,103221.40
2023-02-12T06:36:45.332Z,103217.92
2023-02-12T06:39:49.796Z,103214.27
2023-02-12T06:43:01.024Z,103211.15
2023-02-12T06:46:12.137Z,103213.33
2023-02-12T06:49:13.194Z,103210.52
2023-02-12T06:52:24.432Z,103211.48
2023-02-12T06:55:35.780Z,103208.67
2023-02-12T06:58:29.792Z,103208.16
2023-02-12T07:01:40.598Z,103207.13
2023-02-12T07:04:51.366Z,103204.17
2023-02-12T07:08:02.544Z,103204.13
2023-02-12T07:11:13.951Z,103201.51
2023-02-12T07:14:18.369Z,103204.55
2023-02-12T07:17:21.358Z,103210.20
2023-02-12T07:20:32.089Z,103214.13
2023-02-12T07:23:42.899Z,103210.54
2023-02-12T07:26:54.330Z,103214.77
2023-02-12T07:30:05.423Z,103213.45
2023-02-12T07:33:16.338Z,103213.79
2023-02-12T07:36:23.988Z,103220.38
2023-02-12T07:39:27.125Z,103227.91
2023-02-12T07:42:38.130Z,103230.20
2023-02-12T07:45:48.854Z,103235.39
2023-02-12T07:49:00.853Z,103231.73
2023-02-12T07:52:13.346Z,103237.13
2023-02-12T07:55:24.420Z,103239.39
2023-02-12T07:58:35.751Z,103238.71
2023-02-12T08:01:47.649Z,103242.54
2023-02-12T08:04:47.472Z,103241.02
2023-02-12T08:08:02.441Z,103249.09
2023-02-12T08:11:00.334Z,103254.64
2023-02-12T08:14:12.813Z,103258.96
2023-02-12T08:17:08.599Z,103257.77
2023-02-12T08:20:19.505Z,103258.48
2023-02-12T08:23:30.605Z,103258.14
2023-02-12T08:26:41.821Z,103256.34
2023-02-12T08:29:44.964Z,103257.76
2023-02-12T08:32:46.383Z,103257.92
2023-02-12T08:36:03.148Z,103262.72
2023-02-12T08:39:14.331Z,103265.68
2023-02-12T08:42:25.955Z,103266.33
2023-02-12T08:45:29.242Z,103264.66
2023-02-12T08:48:33.316Z,103262.29
2023-02-12T08:51:45.156Z,103263.09
2023-02-12T08:54:50.426Z,103259.15
2023-02-12T08:58:02.862Z,103259.61
2023-02-12T09:01:16.261Z,103259.39
2023-02-12T09:04:27.130Z,103256.39
2023-02-12T09:07:36.533Z,103256.89
2023-02-12T09:10:47.390Z,103251.42
2023-02-12T09:13:58.578Z,103251.04
2023-02-12T09:17:09.877Z,103248.64
2023-02-12T09:20:03.443Z,103248.69
2023-02-12T09:23:15.654Z,103248.05
2023-02-12T09:26:27.198Z,103247.99
2023-02-12T09:29:21.006Z,103245.49
2023-02-12T09:32:22.993Z,103239.70
2023-02-12T09:35:27.144Z,103239.31
2023-02-12T09:38:38.064Z,103231.94
2023-02-12T09:42:02.506Z,103227.95
2023-02-12T09:45:00.751Z,103223.91
2023-02-12T09:48:32.965Z,103223.64
2023-02-12T09:51:39.686Z,103222.17
2023-02-12T09:54:33.038Z,103215.32
2023-02-12T09:57:35.848Z,103209.35
2023-02-12T10:00:46.623Z,103203.02
2023-02-12T10:03:57.131Z,103200.77
2023-02-12T10:07:10.311Z,103196.42
2023-02-12T10:10:12.112Z,103194.69
2023-02-12T10:13:28.654Z,103198.08
2023-02-12T10:16:45.595Z,103203.63
2023-02-12T10:20:02.853Z,103199.44
2023-02-12T10:23:07.885Z,103195.63
2023-02-12T10:26:15.459Z,103191.31
2023-02-12T10:29:18.869Z,103190.02
2023-02-12T10:32:32.527Z,103190.38
2023-02-12T10:35:24.308Z,103192.77
2023-02-12T10:38:19.105Z,103195.54
2023-02-12T10:41:31.980Z,103192.69
2023-02-12T10:44:22.889Z,103190.90
2023-02-12T10:47:34.193Z,103196.69
2023-02-12T10:50:51.340Z,103191.89
2023-02-12T10:53:48.115Z,103188.41
2023-02-12T10:56:41.297Z,103189.50
2023-02-12T10:59:35.852Z,103186.70
2023-02-12T11:02:30.224Z,103183.20
2023-02-12T11:05:41.935Z,103178.92
2023-02-12T11:08:53.636Z,103183.86
2023-02-12T11:11:58.776Z,103180.84
2023-02-12T11:15:15.782Z,103180.73
2023-02-12T11:18:07.721Z,103178.33
2023-02-12T11:21:24.559Z,103185.77
2023-02-12T11:24:30.991Z,103179.02
2023-02-12T11:27:26.415Z,103173.70
2023-02-12T11:30:27.752Z,103173.23
2023-02-12T11:33:33.175Z,103169.66
2023-02-12T11:36:26.157Z,103166.38
2023-02-12T11:39:21.526Z,103155.20
2023-02-12T11:42:18.444Z,103140.58
2023-02-12T11:45:18.100Z,103140.72
2023-02-12T11:48:17.804Z,103138.42
2023-02-12T11:51:10.441Z,103130.40
2023-02-12T11:54:02.331Z,103126.23
2023-02-12T11:56:56.068Z,103118.16
2023-02-12T11:59:47.236Z,103123.71
2023-02-12T12:02:39.313Z,103121.59
2023-02-12T12:05:32.993Z,103112.77
2023-02-12T12:08:26.258Z,103111.52
2023-02-12T12:11:19.374Z,103105.36
2023-02-12T12:14:13.564Z,103090.48
2023-02-12T12:17:29.979Z,103084.30
2023-02-12T12:20:23.043Z,103079.31
2023-02-12T12:23:17.614Z,103073.79
2023-02-12T12:26:12.401Z,103069.44
2023-02-12T12:29:07.415Z,103062.91
2023-02-12T12:32:01.314Z,103063.11
2023-02-12T12:34:51.903Z,103063.46
2023-02-12T12:37:46.911Z,103063.27
2023-02-12T12:40:51.488Z,103057.02
2023-02-12T12:43:47.227Z,103055.59
2023-02-12T12:46:48.032Z,103051.61
2023-02-12T12:50:01.043Z,103049.61
2023-02-12T12:53:04.622Z,103051.04
2023-02-12T12:56:07.565Z,103045.21
2023-02-12T12:59:15.944Z,103051.36
2023-02-12T13:02:22.789Z,103053.98
2023-02-12T13:05:29.713Z,103050.08
2023-02-12T13:08:27.061Z,103038.75
2023-02-12T13:11:24.212Z,103025.02
2023-02-12T13:14:24.477Z,103019.05
2023-02-12T13:17:19.634Z,103009.65
2023-02-12T13:20:14.423Z,103007.58
2023-02-12T13:23:07.275Z,103008.29
2023-02-12T13:26:01.922Z,103009.87
2023-02-12T13:28:54.529Z,103022.65
2023-02-12T13:32:02.348Z,103025.59
2023-02-12T13:34:54.480Z,103032.30
2023-02-12T13:37:49.001Z,103026.74
2023-02-12T13:40:42.258Z,103026.20
2023-02-12T13:43:41.086Z,103030.66
2023-02-12T13:46:35.612Z,103035.75
2023-02-12T13:49:34.198Z,103028.95
2023-02-12T13:52:30.499Z,103026.00
2023-02-12T13:55:24.527Z,103023.08
2023-02-12T13:58:32.397Z,103019.86
2023-02-12T14:01:41.892Z,103019.62
2023-02-12T14:04:33.502Z,103016.89
2023-02-12T14:07:24.716Z,103019.25
2023-02-12T14:10:23.020Z,103019.35
2023-02-12T14:13:18.591Z,103018.86
2023-02-12T14:16:36.912Z,103010.20
2023-02-12T14:19:54.026Z,103003.70
2023-02-12T14:23:02.324Z,103003.02
2023-02-12T14:26:06.818Z,103002.23
2023-02-12T14:28:58.576Z,103001.45
2023-02-12T14:31:49.462Z,102999.53
2023-02-12T14:34:43.336Z,102997.13
2023-02-12T14:37:38.450Z,103002.40
2023-02-12T14:40:47.419Z,103003.00
2023-02-12T14:43:56.434Z,103006.46
2023-02-12T14:46:50.510Z,103001.34
2023-02-12T14:49:43.092Z,103000.46
2023-02-12T14:52:39.540Z,102995.79
2023-02-12T14:55:43.874Z,102992.08
2023-02-12T14:58:47.695Z,102993.41
2023-02-12T15:01:52.856Z,102994.58
2023-02-12T15:04:46.923Z,102992.96
2023-02-12T15:07:40.952Z,102992.99
2023-02-12T15:10:47.634Z,102989.31
2023-02-12T15:13:55.019Z,102989.48
2023-02-12T15:16:59.987Z,102987.93
2023-02-12T15:20:18.976Z,102985.27
2023-02-12T15:23:37.408Z,102985.73
2023-02-12T15:26:42.664Z,102989.02
2023-02-12T15:29:45.239Z,102992.65
2023-02-12T15:32:48.680Z,102988.49
2023-02-12T15:36:00.088Z,102992.54
2023-02-12T15:39:06.366Z,102994.61
2023-02-12T15:41:57.136Z,102995.04
2023-02-12T15:44:47.889Z,102992.79
2023-02-12T15:47:38.991Z,102995.55
2023-02-12T15:50:52.984Z,102998.72
2023-02-12T15:53:53.788Z,102994.42
2023-02-12T15:56:46.642Z,102990.08
2023-02-12T15:59:53.539Z,102992.89
2023-02-12T16:02:54.577Z,102989.36
2023-02-12T16:06:06.496Z,102990.29
2023-02-12T16:09:18.883Z,102988.17
2023-02-12T16:12:14.538Z,102990.12
2023-02-12T16:15:06.012Z,102990.07
2023-02-12T16:18:26.013Z,102990.33
2023-02-12T16:21:25.938Z,102986.52
2023-02-12T16:24:39.420Z,102988.65
2023-02-12T16:27:36.261Z,102991.77
2023-02-12T16:30:48.606Z,102992.58
2023-02-12T16:33:55.749Z,102997.05
2023-02-12T16:36:59.178Z,102999.03
2023-02-12T16:40:27.796Z,102989.60
2023-02-12T16:43:39.058Z,102990.65
2023-02-12T16:46:51.417Z,102986.31
2023-02-12T16:49:54.190Z,102982.98
2023-02-12T16:53:02.666Z,102974.59
2023-02-12T16:56:07.111Z,102976.31
2023-02-12T16:59:07.348Z,102976.89
2023-02-12T17:02:18.965Z,102973.64
2023-02-12T17:05:30.155Z,102972.94
2023-02-12T17:08:42.607Z,102969.25
2023-02-12T17:11:46.477Z,102974.75
2023-02-12T17:14:49.878Z,102982.40
2023-02-12T17:18:00.495Z,102991.88
2023-02-12T17:21:18.870Z,102996.41
2023-02-12T17:24:24.554Z,103001.99
2023-02-12T17:27:15.303Z,103007.61
2023-02-12T17:30:26.572Z,103009.30
2023-02-12T17:33:38.540Z,103002.77
2023-02-12T17:36:48.258Z,103002.73
2023-02-12T17:39:51.780Z,103003.86
2023-02-12T17:43:02.613Z,103002.88
2023-02-12T17:46:14.467Z,103004.41
2023-02-12T17:49:25.347Z,103007.53
2023-02-12T17:52:36.174Z,103009.58
2023-02-12T17:55:47.839Z,103007.34
2023-02-12T17:58:58.674Z,103003.41
2023-02-12T18:02:09.509Z,102995.96
2023-02-12T18:05:20.510Z,102995.27
2023-02-12T18:08:32.470Z,102993.62
2023-02-12T18:11:38.239Z,102993.20
2023-02-12T18:14:34.565Z,102990.86
2023-02-12T18:17:45.364Z,102990.65
2023-02-12T18:20:47.522Z,102994.20
2023-02-12T18:23:52.106Z,102992.66
2023-02-12T18:27:03.058Z,102991.55
2023-02-12T18:30:14.658Z,102993.96
2023-02-12T18:33:25.495Z,102992.48
2023-02-12T18:36:29.116Z,102993.69
2023-02-12T18:39:40.007Z,102996.13
2023-02-12T18:42:51.285Z,102998.16
2023-02-12T18:46:02.178Z,102992.24
2023-02-12T18:49:14.237Z,102990.02
2023-02-12T18:52:10.215Z,102989.36
2023-02-12T18:55:21.251Z,102990.05
2023-02-12T18:58:32.029Z,102991.56
2023-02-12T19:01:32.675Z,102992.20
2023-02-12T19:04:43.509Z,102987.71
2023-02-12T19:07:54.847Z,102989.41
2023-02-12T19:11:06.394Z,102985.79
2023-02-12T19:14:20.747Z,102983.73
2023-02-12T19:17:32.220Z,102982.79
2023-02-12T19:20:43.375Z,102978.72
2023-02-12T19:23:55.042Z,102976.42
2023-02-12T19:26:58.348Z,102977.54
2023-02-12T19:30:11.671Z,102973.81
2023-02-12T19:33:13.547Z,102966.15
2023-02-12T19:36:25.244Z,102964.16
2023-02-12T19:39:36.083Z,102957.01
2023-02-12T19:42:47.527Z,102956.27
2023-02-12T19:46:02.317Z,102953.19
2023-02-12T19:49:06.498Z,102954.81
2023-02-12T19:52:17.640Z,102949.38
2023-02-12T19:55:21.502Z,102951.29
2023-02-12T19:58:32.700Z,102947.29
2023-02-12T20:01:43.978Z,102944.46
2023-02-12T20:04:55.270Z,102942.93
2023-02-12T20:08:06.360Z,102942.48
2023-02-12T20:11:18.260Z,102930.84
2023-02-12T20:14:29.447Z,102927.58
2023-02-12T20:17:39.117Z,102924.63
2023-02-12T20:20:49.942Z,102921.45
2023-02-12T20:24:02.410Z,102913.23
2023-02-12T20:27:13.769Z,102911.87
2023-02-12T20:30:25.364Z,102909.65
2023-02-12T20:33:29.193Z,102907.19
2023-02-12T20:36:41.205Z,102904.61
2023-02-12T20:39:33.331Z,102910.04
2023-02-12T20:42:44.550Z,102906.46
2023-02-12T20:45:55.564Z,102902.70
2023-02-12T20:49:01.484Z,102897.14
2023-02-12T20:52:12.694Z,102894.02
2023-02-12T20:55:24.053Z,102891.59
2023-02-12T20:58:29.064Z,102889.31
2023-02-12T21:01:31.722Z,102884.27
2023-02-12T21:04:33.109Z,102883.84
2023-02-12T21:07:45.682Z,102880.36
2023-02-12T21:11:01.266Z,102884.85
2023-02-12T21:14:21.827Z,102888.30
2023-02-12T21:17:34.775Z,102887.23
2023-02-12T21:20:46.221Z,102882.98
2023-02-12T21:23:58.790Z,102880.81
2023-02-12T21:27:09.593Z,102883.17
2023-02-12T21:30:03.159Z,102885.35
2023-02-12T21:32:56.405Z,102883.39
2023-02-12T21:36:08.810Z,102881.05
2023-02-12T21:39:25.345Z,102883.88
2023-02-12T21:42:30.328Z,102878.74
2023-02-12T21:45:35.471Z,102883.86
2023-02-12T21:48:47.048Z,102885.02
2023-02-12T21:51:58.794Z,102883.23
2023-02-12T21:55:10.294Z,102883.22
2023-02-12T21:58:21.642Z,102890.84
2023-02-12T22:01:35.477Z,102883.73
2023-02-12T22:04:46.658Z,102879.98
2023-02-12T22:07:51.626Z,102879.65
2023-02-12T22:11:04.971Z,102871.97
2023-02-12T22:14:17.820Z,102868.58
2023-02-12T22:17:20.017Z,102860.92
2023-02-12T22:20:20.174Z,102852.77
2023-02-12T22:23:27.571Z,102845.63
2023-02-12T22:26:38.652Z,102844.11
2023-02-12T22:29:50.904Z,102845.55
2023-02-12T22:33:02.040Z,102849.84
2023-02-12T22:36:12.942Z,102847.34
2023-02-12T22:39:24.019Z,102840.04
2023-02-12T22:42:34.889Z,102837.58
2023-02-12T22:45:46.567Z,102835.91
2023-02-12T22:48:50.454Z,102842.14
2023-02-12T22:51:52.722Z,102841.14
2023-02-12T22:54:52.574Z,102843.80
2023-02-12T22:57:56.422Z,102839.77
2023-02-12T23:01:05.436Z,102837.67
2023-02-12T23:04:17.976Z,102833.79
2023-02-12T23:07:20.796Z,102831.01
2023-02-12T23:10:32.319Z,102832.02
2023-02-12T23:13:43.142Z,102831.11
2023-02-12T23:16:54.311Z,102831.44
2023-02-12T23:20:01.782Z,102832.69
2023-02-12T23:23:13.243Z,102835.10
2023-02-12T23:26:24.158Z,102832.13
2023-02-12T23:29:28.762Z,102834.23
2023-02-12T23:32:39.840Z,102843.43
2023-02-12T23:35:50.806Z,102843.07
2023-02-12T23:39:01.963Z,102846.36
2023-02-12T23:42:13.283Z,102847.89
2023-02-12T23:45:25.076Z,102848.74
2023-02-12T23:48:36.710Z,102851.17
2023-02-12T23:51:48.214Z,102847.55
2023-02-12T23:54:48.110Z,102847.88
2023-02-12T23:57:59.636Z,102847.73
